sensor_id;sensor_type;location;lat;lon;timestamp;temperature;humidity
43665;DHT22;29263;48.172;11.484;2022-11-18T00:01:14;8.30;99.90
43665;DHT22;29263;48.172;11.484;2022-11-18T00:03:40;8.30;99.90
43665;DHT22;29263;48.172;11.484;2022-11-18T00:06:09;8.30;99.90
43665;DHT22;29263;48.172;11.484;2022-11-18T00:08:35;8.30;99.90
43665;DHT22;29263;48.172;11.484;2022-11-18T00:11:08;8.30;99.90
43665;DHT22;29263;48.172;11.484;2022-11-18T00:13:36;8.30;99.90
43665;DHT22;29263;48.172;11.484;2022-11-18T00:16:20;8.30;99.90
43665;DHT22;29263;48.172;11.484;2022-11-18T00:18:45;8.30;99.90
43665;DHT22;29263;48.172;11.484;2022-11-18T00:21:12;8.20;99.90
43665;DHT22;29263;48.172;11.484;2022-11-18T00:23:38;8.20;99.90
43665;DHT22;29263;48.172;11.484;2022-11-18T00:26:06;8.20;99.90
43665;DHT22;29263;48.172;11.484;2022-11-18T00:28:33;8.20;99.90
43665;DHT22;29263;48.172;11.484;2022-11-18T00:31:03;8.20;99.90
43665;DHT22;29263;48.172;11.484;2022-11-18T00:33:29;8.20;99.90
43665;DHT22;29263;48.172;11.484;2022-11-18T00:35:55;8.20;99.90
43665;DHT22;29263;48.172;11.484;2022-11-18T00:38:21;8.10;99.90
43665;DHT22;29263;48.172;11.484;2022-11-18T00:40:47;8.00;99.90
43665;DHT22;29263;48.172;11.484;2022-11-18T00:43:12;8.00;99.90
43665;DHT22;29263;48.172;11.484;2022-11-18T00:45:38;8.00;99.90
43665;DHT22;29263;48.172;11.484;2022-11-18T00:48:04;8.00;99.90
43665;DHT22;29263;48.172;11.484;2022-11-18T00:50:29;8.00;99.90
43665;DHT22;29263;48.172;11.484;2022-11-18T00:52:58;8.00;99.90
43665;DHT22;29263;48.172;11.484;2022-11-18T00:55:24;8.00;99.90
43665;DHT22;29263;48.172;11.484;2022-11-18T00:57:49;8.00;99.90
43665;DHT22;29263;48.172;11.484;2022-11-18T01:00:15;8.00;99.90
43665;DHT22;29263;48.172;11.484;2022-11-18T01:02:41;8.00;99.90
43665;DHT22;29263;48.172;11.484;2022-11-18T01:05:07;8.00;99.90
43665;DHT22;29263;48.172;11.484;2022-11-18T01:07:33;8.00;99.90
43665;DHT22;29263;48.172;11.484;2022-11-18T01:09:58;8.00;99.90
43665;DHT22;29263;48.172;11.484;2022-11-18T01:12:24;7.90;99.90
43665;DHT22;29263;48.172;11.484;2022-11-18T01:15:08;7.90;99.90
43665;DHT22;29263;48.172;11.484;2022-11-18T01:17:34;7.90;99.90
43665;DHT22;29263;48.172;11.484;2022-11-18T01:20:00;7.90;99.90
43665;DHT22;29263;48.172;11.484;2022-11-18T01:22:25;7.90;99.90
43665;DHT22;29263;48.172;11.484;2022-11-18T01:24:51;7.90;99.90
43665;DHT22;29263;48.172;11.484;2022-11-18T01:27:16;7.90;99.90
43665;DHT22;29263;48.172;11.484;2022-11-18T01:29:42;7.90;99.90
43665;DHT22;29263;48.172;11.484;2022-11-18T01:32:08;7.90;99.90
43665;DHT22;29263;48.172;11.484;2022-11-18T01:34:33;7.90;99.90
43665;DHT22;29263;48.172;11.484;2022-11-18T01:36:59;7.90;99.90
43665;DHT22;29263;48.172;11.484;2022-11-18T01:39:25;7.90;99.90
43665;DHT22;29263;48.172;11.484;2022-11-18T01:41:50;7.90;99.90
43665;DHT22;29263;48.172;11.484;2022-11-18T01:47:18;7.90;99.90
43665;DHT22;29263;48.172;11.484;2022-11-18T01:49:45;7.80;99.90
43665;DHT22;29263;48.172;11.484;2022-11-18T01:52:11;7.80;99.90
43665;DHT22;29263;48.172;11.484;2022-11-18T01:54:39;7.80;99.90
43665;DHT22;29263;48.172;11.484;2022-11-18T01:57:11;7.80;99.90
43665;DHT22;29263;48.172;11.484;2022-11-18T01:59:40;7.80;99.90
43665;DHT22;29263;48.172;11.484;2022-11-18T02:02:10;7.80;99.90
43665;DHT22;29263;48.172;11.484;2022-11-18T02:04:38;7.80;99.90
43665;DHT22;29263;48.172;11.484;2022-11-18T02:07:06;7.80;99.90
43665;DHT22;29263;48.172;11.484;2022-11-18T02:09:31;7.80;99.90
43665;DHT22;29263;48.172;11.484;2022-11-18T02:11:57;7.80;99.90
43665;DHT22;29263;48.172;11.484;2022-11-18T02:14:27;7.80;99.90
43665;DHT22;29263;48.172;11.484;2022-11-18T02:28:23;7.70;99.90
43665;DHT22;29263;48.172;11.484;2022-11-18T02:30:33;7.70;99.90
43665;DHT22;29263;48.172;11.484;2022-11-18T02:33:10;7.70;99.90
43665;DHT22;29263;48.172;11.484;2022-11-18T02:35:45;7.70;99.90
43665;DHT22;29263;48.172;11.484;2022-11-18T02:38:28;7.80;99.90
43665;DHT22;29263;48.172;11.484;2022-11-18T02:40:58;7.70;99.90
43665;DHT22;29263;48.172;11.484;2022-11-18T02:43:33;7.80;99.90
43665;DHT22;29263;48.172;11.484;2022-11-18T02:46:06;7.80;99.90
43665;DHT22;29263;48.172;11.484;2022-11-18T02:48:36;7.80;99.90
43665;DHT22;29263;48.172;11.484;2022-11-18T02:51:05;7.80;99.90
43665;DHT22;29263;48.172;11.484;2022-11-18T02:53:32;7.80;99.90
43665;DHT22;29263;48.172;11.484;2022-11-18T02:56:00;7.80;99.90
43665;DHT22;29263;48.172;11.484;2022-11-18T02:58:26;7.80;99.90
43665;DHT22;29263;48.172;11.484;2022-11-18T03:00:58;7.80;99.90
43665;DHT22;29263;48.172;11.484;2022-11-18T03:03:29;7.80;99.90
43665;DHT22;29263;48.172;11.484;2022-11-18T03:08:44;7.80;99.90
43665;DHT22;29263;48.172;11.484;2022-11-18T03:11:17;7.80;99.90
43665;DHT22;29263;48.172;11.484;2022-11-18T03:16:24;7.80;99.90
43665;DHT22;29263;48.172;11.484;2022-11-18T03:19:01;7.80;99.90
43665;DHT22;29263;48.172;11.484;2022-11-18T03:22:03;7.90;99.90
43665;DHT22;29263;48.172;11.484;2022-11-18T03:24:32;7.80;99.90
43665;DHT22;29263;48.172;11.484;2022-11-18T03:27:17;7.70;99.90
43665;DHT22;29263;48.172;11.484;2022-11-18T03:29:51;7.70;99.90
43665;DHT22;29263;48.172;11.484;2022-11-18T03:32:22;7.70;99.90
43665;DHT22;29263;48.172;11.484;2022-11-18T03:35:07;7.70;99.90
43665;DHT22;29263;48.172;11.484;2022-11-18T03:37:34;7.70;99.90
43665;DHT22;29263;48.172;11.484;2022-11-18T03:40:12;7.70;99.90
43665;DHT22;29263;48.172;11.484;2022-11-18T03:42:43;7.70;99.90
43665;DHT22;29263;48.172;11.484;2022-11-18T03:45:21;7.80;99.90
43665;DHT22;29263;48.172;11.484;2022-11-18T03:48:11;7.80;99.90
43665;DHT22;29263;48.172;11.484;2022-11-18T03:50:45;7.70;99.90
43665;DHT22;29263;48.172;11.484;2022-11-18T03:53:13;7.80;99.90
43665;DHT22;29263;48.172;11.484;2022-11-18T03:55:43;7.80;99.90
43665;DHT22;29263;48.172;11.484;2022-11-18T03:58:20;7.90;99.90
43665;DHT22;29263;48.172;11.484;2022-11-18T04:00:50;7.80;99.90
43665;DHT22;29263;48.172;11.484;2022-11-18T04:03:17;7.90;99.90
43665;DHT22;29263;48.172;11.484;2022-11-18T04:05:43;7.80;99.90
43665;DHT22;29263;48.172;11.484;2022-11-18T04:08:14;7.80;99.90
43665;DHT22;29263;48.172;11.484;2022-11-18T04:10:56;7.80;99.90
43665;DHT22;29263;48.172;11.484;2022-11-18T04:13:27;7.90;99.90
43665;DHT22;29263;48.172;11.484;2022-11-18T04:15:54;7.80;99.90
43665;DHT22;29263;48.172;11.484;2022-11-18T04:18:21;7.80;99.90
43665;DHT22;29263;48.172;11.484;2022-11-18T04:20:46;7.80;99.90
43665;DHT22;29263;48.172;11.484;2022-11-18T04:23:12;7.80;99.90
43665;DHT22;29263;48.172;11.484;2022-11-18T04:25:38;7.80;99.90
43665;DHT22;29263;48.172;11.484;2022-11-18T04:28:04;7.80;99.90
43665;DHT22;29263;48.172;11.484;2022-11-18T04:30:29;7.80;99.90
43665;DHT22;29263;48.172;11.484;2022-11-18T04:32:55;7.70;99.90
43665;DHT22;29263;48.172;11.484;2022-11-18T04:35:21;7.70;99.90
43665;DHT22;29263;48.172;11.484;2022-11-18T04:37:47;7.60;99.90
43665;DHT22;29263;48.172;11.484;2022-11-18T04:40:13;7.60;99.90
43665;DHT22;29263;48.172;11.484;2022-11-18T04:42:38;7.60;99.90
43665;DHT22;29263;48.172;11.484;2022-11-18T04:45:05;7.70;99.90
43665;DHT22;29263;48.172;11.484;2022-11-18T04:47:31;7.70;99.90
43665;DHT22;29263;48.172;11.484;2022-11-18T04:49:56;7.70;99.90
43665;DHT22;29263;48.172;11.484;2022-11-18T04:52:22;7.70;99.90
43665;DHT22;29263;48.172;11.484;2022-11-18T04:54:48;7.60;99.90
43665;DHT22;29263;48.172;11.484;2022-11-18T04:57:13;7.60;99.90
43665;DHT22;29263;48.172;11.484;2022-11-18T04:59:39;7.60;99.90
43665;DHT22;29263;48.172;11.484;2022-11-18T05:02:05;7.70;99.90
43665;DHT22;29263;48.172;11.484;2022-11-18T05:04:32;7.70;99.90
43665;DHT22;29263;48.172;11.484;2022-11-18T05:07:00;7.70;99.90
43665;DHT22;29263;48.172;11.484;2022-11-18T05:09:26;7.70;99.90
43665;DHT22;29263;48.172;11.484;2022-11-18T05:11:52;7.70;99.90
43665;DHT22;29263;48.172;11.484;2022-11-18T05:14:36;7.70;99.90
43665;DHT22;29263;48.172;11.484;2022-11-18T05:17:06;7.70;99.90
43665;DHT22;29263;48.172;11.484;2022-11-18T05:19:32;7.80;99.90
43665;DHT22;29263;48.172;11.484;2022-11-18T05:21:58;7.80;99.90
43665;DHT22;29263;48.172;11.484;2022-11-18T05:24:24;7.80;99.90
43665;DHT22;29263;48.172;11.484;2022-11-18T05:26:51;7.80;99.90
43665;DHT22;29263;48.172;11.484;2022-11-18T05:29:17;7.80;99.90
43665;DHT22;29263;48.172;11.484;2022-11-18T05:31:44;7.80;99.90
43665;DHT22;29263;48.172;11.484;2022-11-18T05:34:10;7.70;99.90
43665;DHT22;29263;48.172;11.484;2022-11-18T05:36:36;7.70;99.90
43665;DHT22;29263;48.172;11.484;2022-11-18T05:39:01;7.70;99.90
43665;DHT22;29263;48.172;11.484;2022-11-18T05:41:27;7.70;99.90
43665;DHT22;29263;48.172;11.484;2022-11-18T05:44:11;7.70;99.90
43665;DHT22;29263;48.172;11.484;2022-11-18T05:46:37;7.70;99.90
43665;DHT22;29263;48.172;11.484;2022-11-18T05:49:03;7.60;99.90
43665;DHT22;29263;48.172;11.484;2022-11-18T05:51:29;7.60;99.90
43665;DHT22;29263;48.172;11.484;2022-11-18T05:53:55;7.60;99.90
43665;DHT22;29263;48.172;11.484;2022-11-18T05:56:36;7.60;99.90
43665;DHT22;29263;48.172;11.484;2022-11-18T05:59:03;7.60;99.90
43665;DHT22;29263;48.172;11.484;2022-11-18T06:04:38;7.60;99.90
43665;DHT22;29263;48.172;11.484;2022-11-18T06:07:06;7.60;99.90
43665;DHT22;29263;48.172;11.484;2022-11-18T06:09:36;7.70;99.90
43665;DHT22;29263;48.172;11.484;2022-11-18T06:12:05;7.60;99.90
43665;DHT22;29263;48.172;11.484;2022-11-18T06:14:41;7.60;99.90
43665;DHT22;29263;48.172;11.484;2022-11-18T06:17:13;7.70;99.90
43665;DHT22;29263;48.172;11.484;2022-11-18T06:19:40;7.70;99.90
43665;DHT22;29263;48.172;11.484;2022-11-18T06:22:06;7.80;99.90
43665;DHT22;29263;48.172;11.484;2022-11-18T06:24:33;7.80;99.90
43665;DHT22;29263;48.172;11.484;2022-11-18T06:26:59;7.70;99.90
43665;DHT22;29263;48.172;11.484;2022-11-18T06:32:00;7.70;99.90
43665;DHT22;29263;48.172;11.484;2022-11-18T06:44:47;7.70;99.90
43665;DHT22;29263;48.172;11.484;2022-11-18T06:52:24;7.60;99.90
43665;DHT22;29263;48.172;11.484;2022-11-18T06:57:25;7.60;99.90
43665;DHT22;29263;48.172;11.484;2022-11-18T06:59:50;7.60;99.90
43665;DHT22;29263;48.172;11.484;2022-11-18T07:10:02;7.70;99.90
43665;DHT22;29263;48.172;11.484;2022-11-18T07:12:28;7.70;99.90
43665;DHT22;29263;48.172;11.484;2022-11-18T07:48:34;7.70;99.90
43665;DHT22;29263;48.172;11.484;2022-11-18T07:51:00;7.70;99.90
43665;DHT22;29263;48.172;11.484;2022-11-18T07:53:31;7.70;99.90
43665;DHT22;29263;48.172;11.484;2022-11-18T07:55:57;7.70;99.90
43665;DHT22;29263;48.172;11.484;2022-11-18T07:58:23;7.80;99.90
43665;DHT22;29263;48.172;11.484;2022-11-18T08:00:49;7.80;99.90
43665;DHT22;29263;48.172;11.484;2022-11-18T08:05:50;7.90;99.90
43665;DHT22;29263;48.172;11.484;2022-11-18T08:10:54;7.80;99.90
43665;DHT22;29263;48.172;11.484;2022-11-18T08:13:20;7.80;99.90
43665;DHT22;29263;48.172;11.484;2022-11-18T08:15:49;7.80;99.90
43665;DHT22;29263;48.172;11.484;2022-11-18T08:26:07;7.90;99.90
43665;DHT22;29263;48.172;11.484;2022-11-18T08:31:20;8.00;99.90
43665;DHT22;29263;48.172;11.484;2022-11-18T08:33:46;7.90;99.90
43665;DHT22;29263;48.172;11.484;2022-11-18T08:38:39;7.90;99.90
43665;DHT22;29263;48.172;11.484;2022-11-18T08:41:05;8.00;99.90
43665;DHT22;29263;48.172;11.484;2022-11-18T08:46:13;8.00;99.90
43665;DHT22;29263;48.172;11.484;2022-11-18T08:48:39;8.00;99.90
43665;DHT22;29263;48.172;11.484;2022-11-18T08:51:05;8.00;99.90
43665;DHT22;29263;48.172;11.484;2022-11-18T08:53:33;8.00;99.90
43665;DHT22;29263;48.172;11.484;2022-11-18T08:56:00;8.00;99.90
43665;DHT22;29263;48.172;11.484;2022-11-18T08:58:26;8.10;99.90
43665;DHT22;29263;48.172;11.484;2022-11-18T09:00:52;8.00;99.90
43665;DHT22;29263;48.172;11.484;2022-11-18T09:03:18;8.00;99.90
43665;DHT22;29263;48.172;11.484;2022-11-18T09:05:44;8.00;99.90
43665;DHT22;29263;48.172;11.484;2022-11-18T09:08:09;8.10;99.90
43665;DHT22;29263;48.172;11.484;2022-11-18T09:10:36;8.00;99.90
43665;DHT22;29263;48.172;11.484;2022-11-18T09:13:02;8.00;99.90
43665;DHT22;29263;48.172;11.484;2022-11-18T09:15:28;7.90;99.90
43665;DHT22;29263;48.172;11.484;2022-11-18T09:17:55;7.90;99.90
43665;DHT22;29263;48.172;11.484;2022-11-18T09:20:21;7.90;99.90
43665;DHT22;29263;48.172;11.484;2022-11-18T09:22:46;7.90;99.90
43665;DHT22;29263;48.172;11.484;2022-11-18T09:25:12;7.90;99.90
43665;DHT22;29263;48.172;11.484;2022-11-18T09:27:38;7.90;99.90
43665;DHT22;29263;48.172;11.484;2022-11-18T09:30:04;7.80;99.90
43665;DHT22;29263;48.172;11.484;2022-11-18T09:32:31;7.80;99.90
43665;DHT22;29263;48.172;11.484;2022-11-18T09:34:57;7.70;99.90
43665;DHT22;29263;48.172;11.484;2022-11-18T09:37:23;7.80;99.90
43665;DHT22;29263;48.172;11.484;2022-11-18T09:39:48;7.70;99.90
43665;DHT22;29263;48.172;11.484;2022-11-18T09:45:24;7.60;99.90
43665;DHT22;29263;48.172;11.484;2022-11-18T09:47:56;7.50;99.90
43665;DHT22;29263;48.172;11.484;2022-11-18T09:55:27;7.40;99.90
43665;DHT22;29263;48.172;11.484;2022-11-18T09:57:55;7.40;99.90
43665;DHT22;29263;48.172;11.484;2022-11-18T10:00:24;7.50;99.90
43665;DHT22;29263;48.172;11.484;2022-11-18T10:02:53;7.50;99.90
43665;DHT22;29263;48.172;11.484;2022-11-18T10:05:24;7.50;99.90
43665;DHT22;29263;48.172;11.484;2022-11-18T10:08:03;7.50;99.90
43665;DHT22;29263;48.172;11.484;2022-11-18T10:13:16;7.50;99.90
43665;DHT22;29263;48.172;11.484;2022-11-18T10:15:56;7.50;99.90
43665;DHT22;29263;48.172;11.484;2022-11-18T10:18:45;7.50;99.90
43665;DHT22;29263;48.172;11.484;2022-11-18T10:21:56;7.50;99.90
43665;DHT22;29263;48.172;11.484;2022-11-18T10:24:07;7.50;99.90
43665;DHT22;29263;48.172;11.484;2022-11-18T10:26:38;7.60;99.90
43665;DHT22;29263;48.172;11.484;2022-11-18T10:29:04;7.60;99.90
43665;DHT22;29263;48.172;11.484;2022-11-18T10:31:51;7.60;99.90
43665;DHT22;29263;48.172;11.484;2022-11-18T10:34:18;7.60;99.90
43665;DHT22;29263;48.172;11.484;2022-11-18T10:39:28;7.50;99.90
43665;DHT22;29263;48.172;11.484;2022-11-18T10:42:02;7.50;99.90
43665;DHT22;29263;48.172;11.484;2022-11-18T10:44:38;7.50;99.90
43665;DHT22;29263;48.172;11.484;2022-11-18T10:47:29;7.50;99.90
43665;DHT22;29263;48.172;11.484;2022-11-18T10:49:57;7.50;99.90
43665;DHT22;29263;48.172;11.484;2022-11-18T10:52:23;7.40;99.90
43665;DHT22;29263;48.172;11.484;2022-11-18T10:55:28;7.40;99.90
43665;DHT22;29263;48.172;11.484;2022-11-18T10:58:02;7.30;99.90
43665;DHT22;29263;48.172;11.484;2022-11-18T11:00:48;7.30;99.90
43665;DHT22;29263;48.172;11.484;2022-11-18T11:05:45;7.30;99.90
43665;DHT22;29263;48.172;11.484;2022-11-18T11:08:29;7.30;99.90
43665;DHT22;29263;48.172;11.484;2022-11-18T11:10:57;7.40;99.90
43665;DHT22;29263;48.172;11.484;2022-11-18T11:13:26;7.50;99.90
43665;DHT22;29263;48.172;11.484;2022-11-18T11:15:57;7.50;99.90
43665;DHT22;29263;48.172;11.484;2022-11-18T11:18:27;7.60;99.90
43665;DHT22;29263;48.172;11.484;2022-11-18T11:21:11;7.60;99.90
43665;DHT22;29263;48.172;11.484;2022-11-18T11:23:37;7.70;99.90
43665;DHT22;29263;48.172;11.484;2022-11-18T11:32:14;7.80;99.90
43665;DHT22;29263;48.172;11.484;2022-11-18T11:37:28;7.70;99.90
43665;DHT22;29263;48.172;11.484;2022-11-18T11:43:02;7.70;99.90
43665;DHT22;29263;48.172;11.484;2022-11-18T11:56:47;7.50;99.90
43665;DHT22;29263;48.172;11.484;2022-11-18T12:00:00;7.50;99.90
43665;DHT22;29263;48.172;11.484;2022-11-18T12:02:28;7.50;99.90
43665;DHT22;29263;48.172;11.484;2022-11-18T12:07:47;7.60;99.90
43665;DHT22;29263;48.172;11.484;2022-11-18T12:18:45;7.60;99.90
43665;DHT22;29263;48.172;11.484;2022-11-18T12:27:04;7.50;99.90
43665;DHT22;29263;48.172;11.484;2022-11-18T12:32:38;7.50;99.90
43665;DHT22;29263;48.172;11.484;2022-11-18T12:40:08;7.40;99.90
43665;DHT22;29263;48.172;11.484;2022-11-18T12:42:44;7.40;99.90
43665;DHT22;29263;48.172;11.484;2022-11-18T12:50:50;7.40;99.90
43665;DHT22;29263;48.172;11.484;2022-11-18T12:56:27;7.30;99.90
43665;DHT22;29263;48.172;11.484;2022-11-18T12:58:58;7.30;99.90
43665;DHT22;29263;48.172;11.484;2022-11-18T13:01:25;7.30;99.90
43665;DHT22;29263;48.172;11.484;2022-11-18T13:03:52;7.20;99.90
43665;DHT22;29263;48.172;11.484;2022-11-18T13:06:30;7.20;99.90
43665;DHT22;29263;48.172;11.484;2022-11-18T13:09:02;7.10;99.90
43665;DHT22;29263;48.172;11.484;2022-11-18T13:11:30;7.10;99.90
43665;DHT22;29263;48.172;11.484;2022-11-18T13:17:33;7.10;99.90
43665;DHT22;29263;48.172;11.484;2022-11-18T13:20:38;7.00;99.90
43665;DHT22;29263;48.172;11.484;2022-11-18T13:26:06;7.00;99.90
43665;DHT22;29263;48.172;11.484;2022-11-18T13:28:46;7.00;99.90
43665;DHT22;29263;48.172;11.484;2022-11-18T13:31:56;7.00;99.90
43665;DHT22;29263;48.172;11.484;2022-11-18T13:34:27;7.00;99.90
43665;DHT22;29263;48.172;11.484;2022-11-18T13:36:55;7.00;99.90
43665;DHT22;29263;48.172;11.484;2022-11-18T13:39:27;7.10;99.90
43665;DHT22;29263;48.172;11.484;2022-11-18T13:42:04;7.10;99.90
43665;DHT22;29263;48.172;11.484;2022-11-18T13:44:38;7.00;99.90
43665;DHT22;29263;48.172;11.484;2022-11-18T13:50:02;7.10;99.90
43665;DHT22;29263;48.172;11.484;2022-11-18T13:54:58;7.00;99.90
43665;DHT22;29263;48.172;11.484;2022-11-18T13:57:26;7.10;99.90
43665;DHT22;29263;48.172;11.484;2022-11-18T13:59:54;7.00;99.90
43665;DHT22;29263;48.172;11.484;2022-11-18T14:02:20;7.10;99.90
43665;DHT22;29263;48.172;11.484;2022-11-18T14:04:57;7.00;99.90
43665;DHT22;29263;48.172;11.484;2022-11-18T14:07:34;7.10;99.90
43665;DHT22;29263;48.172;11.484;2022-11-18T14:10:10;7.20;99.90
43665;DHT22;29263;48.172;11.484;2022-11-18T14:12:39;7.20;99.90
43665;DHT22;29263;48.172;11.484;2022-11-18T14:17:56;7.10;99.90
43665;DHT22;29263;48.172;11.484;2022-11-18T14:20:23;7.10;99.90
43665;DHT22;29263;48.172;11.484;2022-11-18T14:23:00;7.20;99.90
43665;DHT22;29263;48.172;11.484;2022-11-18T14:25:31;7.20;99.90
43665;DHT22;29263;48.172;11.484;2022-11-18T14:33:25;7.20;99.90
43665;DHT22;29263;48.172;11.484;2022-11-18T14:38:28;7.20;99.90
43665;DHT22;29263;48.172;11.484;2022-11-18T14:40:55;7.20;99.90
43665;DHT22;29263;48.172;11.484;2022-11-18T14:43:21;7.30;99.90
43665;DHT22;29263;48.172;11.484;2022-11-18T14:45:47;7.30;99.90
43665;DHT22;29263;48.172;11.484;2022-11-18T14:48:14;7.20;99.90
43665;DHT22;29263;48.172;11.484;2022-11-18T14:50:41;7.20;99.90
43665;DHT22;29263;48.172;11.484;2022-11-18T14:53:10;7.30;99.90
43665;DHT22;29263;48.172;11.484;2022-11-18T14:55:36;7.30;99.90
43665;DHT22;29263;48.172;11.484;2022-11-18T14:58:02;7.30;99.90
43665;DHT22;29263;48.172;11.484;2022-11-18T15:00:28;7.20;99.90
43665;DHT22;29263;48.172;11.484;2022-11-18T15:02:53;7.20;99.90
43665;DHT22;29263;48.172;11.484;2022-11-18T15:05:19;7.10;99.90
43665;DHT22;29263;48.172;11.484;2022-11-18T15:07:44;7.10;99.90
43665;DHT22;29263;48.172;11.484;2022-11-18T15:10:12;7.00;99.90
43665;DHT22;29263;48.172;11.484;2022-11-18T15:12:39;7.00;99.90
43665;DHT22;29263;48.172;11.484;2022-11-18T15:15:05;7.10;99.90
43665;DHT22;29263;48.172;11.484;2022-11-18T15:17:31;7.00;99.90
43665;DHT22;29263;48.172;11.484;2022-11-18T15:19:56;7.00;99.90
43665;DHT22;29263;48.172;11.484;2022-11-18T15:22:23;7.00;99.90
43665;DHT22;29263;48.172;11.484;2022-11-18T15:24:48;7.00;99.90
43665;DHT22;29263;48.172;11.484;2022-11-18T15:27:14;7.00;99.90
43665;DHT22;29263;48.172;11.484;2022-11-18T15:29:39;7.00;99.90
43665;DHT22;29263;48.172;11.484;2022-11-18T15:32:05;7.00;99.90
43665;DHT22;29263;48.172;11.484;2022-11-18T15:34:31;7.00;99.90
43665;DHT22;29263;48.172;11.484;2022-11-18T15:36:56;7.00;99.90
43665;DHT22;29263;48.172;11.484;2022-11-18T15:39:22;7.00;99.90
43665;DHT22;29263;48.172;11.484;2022-11-18T15:41:47;7.00;99.90
43665;DHT22;29263;48.172;11.484;2022-11-18T15:44:13;7.00;99.90
43665;DHT22;29263;48.172;11.484;2022-11-18T15:46:39;7.00;99.90
43665;DHT22;29263;48.172;11.484;2022-11-18T15:49:04;7.00;99.90
43665;DHT22;29263;48.172;11.484;2022-11-18T15:51:33;7.00;99.90
43665;DHT22;29263;48.172;11.484;2022-11-18T15:53:58;6.90;99.90
43665;DHT22;29263;48.172;11.484;2022-11-18T15:56:28;6.90;99.90
43665;DHT22;29263;48.172;11.484;2022-11-18T15:59:09;6.90;99.90
43665;DHT22;29263;48.172;11.484;2022-11-18T16:01:37;6.90;99.90
43665;DHT22;29263;48.172;11.484;2022-11-18T16:04:04;7.00;99.90
43665;DHT22;29263;48.172;11.484;2022-11-18T16:06:30;7.00;99.90
43665;DHT22;29263;48.172;11.484;2022-11-18T16:08:56;6.90;99.90
43665;DHT22;29263;48.172;11.484;2022-11-18T16:11:22;6.90;99.90
43665;DHT22;29263;48.172;11.484;2022-11-18T16:14:08;6.90;99.90
43665;DHT22;29263;48.172;11.484;2022-11-18T16:16:35;7.00;99.90
43665;DHT22;29263;48.172;11.484;2022-11-18T16:19:10;6.90;99.90
43665;DHT22;29263;48.172;11.484;2022-11-18T16:21:38;6.90;99.90
43665;DHT22;29263;48.172;11.484;2022-11-18T16:24:06;6.90;99.90
43665;DHT22;29263;48.172;11.484;2022-11-18T16:26:33;6.90;99.90
43665;DHT22;29263;48.172;11.484;2022-11-18T16:28:59;7.00;99.90
43665;DHT22;29263;48.172;11.484;2022-11-18T16:31:25;7.00;99.90
43665;DHT22;29263;48.172;11.484;2022-11-18T16:34:34;7.00;99.90
43665;DHT22;29263;48.172;11.484;2022-11-18T16:37:02;7.00;99.90
43665;DHT22;29263;48.172;11.484;2022-11-18T16:39:29;7.00;99.90
43665;DHT22;29263;48.172;11.484;2022-11-18T16:41:56;7.10;99.90
43665;DHT22;29263;48.172;11.484;2022-11-18T16:44:22;7.10;99.90
43665;DHT22;29263;48.172;11.484;2022-11-18T16:46:50;7.00;99.90
43665;DHT22;29263;48.172;11.484;2022-11-18T16:49:17;7.00;99.90
43665;DHT22;29263;48.172;11.484;2022-11-18T16:51:45;6.90;99.90
43665;DHT22;29263;48.172;11.484;2022-11-18T16:54:23;7.00;99.90
43665;DHT22;29263;48.172;11.484;2022-11-18T16:56:50;7.00;99.90
43665;DHT22;29263;48.172;11.484;2022-11-18T16:59:21;7.00;99.90
43665;DHT22;29263;48.172;11.484;2022-11-18T17:01:48;7.00;99.90
43665;DHT22;29263;48.172;11.484;2022-11-18T17:04:14;7.00;99.90
43665;DHT22;29263;48.172;11.484;2022-11-18T17:06:40;7.00;99.90
43665;DHT22;29263;48.172;11.484;2022-11-18T17:09:08;7.00;99.90
43665;DHT22;29263;48.172;11.484;2022-11-18T17:11:36;7.00;99.90
43665;DHT22;29263;48.172;11.484;2022-11-18T17:14:02;7.00;99.90
43665;DHT22;29263;48.172;11.484;2022-11-18T17:16:27;7.00;99.90
43665;DHT22;29263;48.172;11.484;2022-11-18T17:18:55;7.00;99.90
43665;DHT22;29263;48.172;11.484;2022-11-18T17:21:21;7.00;99.90
43665;DHT22;29263;48.172;11.484;2022-11-18T17:23:48;7.00;99.90
43665;DHT22;29263;48.172;11.484;2022-11-18T17:26:15;7.00;99.90
43665;DHT22;29263;48.172;11.484;2022-11-18T17:28:41;7.00;99.90
43665;DHT22;29263;48.172;11.484;2022-11-18T17:31:09;7.00;99.90
43665;DHT22;29263;48.172;11.484;2022-11-18T17:33:35;7.00;99.90
43665;DHT22;29263;48.172;11.484;2022-11-18T17:36:09;7.00;99.90
43665;DHT22;29263;48.172;11.484;2022-11-18T17:38:38;7.00;99.90
43665;DHT22;29263;48.172;11.484;2022-11-18T17:41:04;7.00;99.90
43665;DHT22;29263;48.172;11.484;2022-11-18T17:43:30;6.90;99.90
43665;DHT22;29263;48.172;11.484;2022-11-18T17:45:58;6.90;99.90
43665;DHT22;29263;48.172;11.484;2022-11-18T17:48:25;6.90;99.90
43665;DHT22;29263;48.172;11.484;2022-11-18T17:50:51;7.00;99.90
43665;DHT22;29263;48.172;11.484;2022-11-18T17:53:18;7.00;99.90
43665;DHT22;29263;48.172;11.484;2022-11-18T17:55:44;7.00;99.90
43665;DHT22;29263;48.172;11.484;2022-11-18T17:58:11;6.90;99.90
43665;DHT22;29263;48.172;11.484;2022-11-18T18:00:37;7.00;99.90
43665;DHT22;29263;48.172;11.484;2022-11-18T18:03:04;7.00;99.90
43665;DHT22;29263;48.172;11.484;2022-11-18T18:05:30;7.00;99.90
43665;DHT22;29263;48.172;11.484;2022-11-18T18:07:56;7.00;99.90
43665;DHT22;29263;48.172;11.484;2022-11-18T18:10:23;7.00;99.90
43665;DHT22;29263;48.172;11.484;2022-11-18T18:12:49;7.00;99.90
43665;DHT22;29263;48.172;11.484;2022-11-18T18:15:33;6.90;99.90
43665;DHT22;29263;48.172;11.484;2022-11-18T18:17:59;6.90;99.90
43665;DHT22;29263;48.172;11.484;2022-11-18T18:20:25;6.80;99.90
43665;DHT22;29263;48.172;11.484;2022-11-18T18:22:52;6.80;99.90
43665;DHT22;29263;48.172;11.484;2022-11-18T18:25:18;6.80;99.90
43665;DHT22;29263;48.172;11.484;2022-11-18T18:27:44;6.70;99.90
43665;DHT22;29263;48.172;11.484;2022-11-18T18:30:10;6.70;99.90
43665;DHT22;29263;48.172;11.484;2022-11-18T18:32:36;6.70;99.90
43665;DHT22;29263;48.172;11.484;2022-11-18T18:35:02;6.60;99.90
43665;DHT22;29263;48.172;11.484;2022-11-18T18:37:28;6.60;99.90
43665;DHT22;29263;48.172;11.484;2022-11-18T18:39:54;6.60;99.90
43665;DHT22;29263;48.172;11.484;2022-11-18T18:42:19;6.50;99.90
43665;DHT22;29263;48.172;11.484;2022-11-18T18:44:45;6.50;99.90
43665;DHT22;29263;48.172;11.484;2022-11-18T18:47:29;6.40;99.90
43665;DHT22;29263;48.172;11.484;2022-11-18T18:49:57;6.40;99.90
43665;DHT22;29263;48.172;11.484;2022-11-18T18:52:23;6.40;99.90
43665;DHT22;29263;48.172;11.484;2022-11-18T18:54:48;6.40;99.90
43665;DHT22;29263;48.172;11.484;2022-11-18T18:57:14;6.30;99.90
43665;DHT22;29263;48.172;11.484;2022-11-18T18:59:40;6.40;99.90
43665;DHT22;29263;48.172;11.484;2022-11-18T19:02:06;6.40;99.90
43665;DHT22;29263;48.172;11.484;2022-11-18T19:04:31;6.40;99.90